createdAt,value
2023-05-22T00:01:56.277Z,82.55
2023-05-22T00:04:24.129Z,82.30
2023-05-22T00:06:52.165Z,81.93
2023-05-22T00:09:19.899Z,82.42
2023-05-22T00:11:47.934Z,82.31
2023-05-22T00:14:16.976Z,82.75
2023-05-22T00:16:46.268Z,82.69
2023-05-22T00:19:17.140Z,83.03
2023-05-22T00:21:45.412Z,83.39
2023-05-22T00:24:13.449Z,83.31
2023-05-22T00:26:41.145Z,83.45
2023-05-22T00:29:09.387Z,83.51
2023-05-22T00:31:37.174Z,83.73
2023-05-22T00:34:06.318Z,84.09
2023-05-22T00:36:34.313Z,84.27
2023-05-22T00:39:02.038Z,84.12
2023-05-22T00:41:29.910Z,84.05
2023-05-22T00:43:57.589Z,84.44
2023-05-22T00:46:25.293Z,84.22
2023-05-22T00:48:53.613Z,84.96
2023-05-22T00:51:23.318Z,84.45
2023-05-22T00:53:51.533Z,84.68
2023-05-22T00:56:20.068Z,84.60
2023-05-22T00:58:47.990Z,84.44
2023-05-22T01:01:17.873Z,84.98
2023-05-22T01:03:46.978Z,84.95
2023-05-22T01:06:18.393Z,84.94
2023-05-22T01:08:47.586Z,85.13
2023-05-22T01:11:22.724Z,85.32
2023-05-22T01:14:00.684Z,85.32
2023-05-22T01:16:38.511Z,85.78
2023-05-22T01:19:16.097Z,85.96
2023-05-22T01:21:54.930Z,86.58
2023-05-22T01:24:48.749Z,86.65
2023-05-22T01:27:28.530Z,86.88
2023-05-22T01:30:13.927Z,87.50
2023-05-22T01:32:45.464Z,86.91
2023-05-22T01:35:18.592Z,86.62
2023-05-22T01:37:47.243Z,85.90
2023-05-22T01:40:15.487Z,85.13
2023-05-22T01:42:43.664Z,84.89
2023-05-22T01:45:12.530Z,85.26
2023-05-22T01:47:40.518Z,85.18
2023-05-22T01:50:10.649Z,85.76
2023-05-22T01:52:46.475Z,86.12
2023-05-22T01:55:20.290Z,85.85
2023-05-22T01:57:57.959Z,85.67
2023-05-22T02:00:27.560Z,85.05
2023-05-22T02:03:09.965Z,84.98
2023-05-22T02:05:41.279Z,84.70
2023-05-22T02:08:10.305Z,84.14
2023-05-22T02:10:40.072Z,85.10
2023-05-22T02:13:08.332Z,85.44
2023-05-22T02:15:36.428Z,85.25
2023-05-22T02:18:04.422Z,86.28
2023-05-22T02:20:32.424Z,86.80
2023-05-22T02:23:01.538Z,87.69
2023-05-22T02:25:29.255Z,87.55
2023-05-22T02:27:56.994Z,87.79
2023-05-22T02:30:24.955Z,88.32
2023-05-22T02:32:53.095Z,88.59
2023-05-22T02:35:21.218Z,88.54
2023-05-22T02:37:48.876Z,88.75
2023-05-22T02:40:21.734Z,87.98
2023-05-22T02:42:49.521Z,88.38
2023-05-22T02:45:18.629Z,88.70
2023-05-22T02:47:46.394Z,88.75
2023-05-22T02:50:14.663Z,88.61
2023-05-22T02:52:42.530Z,87.98
2023-05-22T02:55:10.923Z,87.64
2023-05-22T02:57:40.033Z,86.43
2023-05-22T03:00:11.464Z,86.73
2023-05-22T03:02:39.750Z,87.04
2023-05-22T03:05:08.073Z,87.51
2023-05-22T03:07:35.892Z,88.18
2023-05-22T03:10:03.547Z,88.87
2023-05-22T03:12:31.284Z,88.93
2023-05-22T03:15:00.422Z,89.05
2023-05-22T03:17:28.433Z,89.63
2023-05-22T03:19:56.410Z,89.18
2023-05-22T03:22:24.075Z,89.78
2023-05-22T03:24:52.390Z,89.89
2023-05-22T03:27:20.240Z,89.81
2023-05-22T03:29:47.940Z,89.96
2023-05-22T03:32:17.070Z,89.86
2023-05-22T03:34:44.750Z,90.25
2023-05-22T03:37:12.407Z,90.33
2023-05-22T03:39:40.443Z,90.97
2023-05-22T03:42:08.238Z,90.76
2023-05-22T03:44:35.979Z,90.69
2023-05-22T03:47:03.681Z,90.29
2023-05-22T03:49:32.748Z,90.05
2023-05-22T03:52:01.053Z,90.20
2023-05-22T03:54:28.756Z,89.48
2023-05-22T03:56:56.502Z,89.97
2023-05-22T03:59:24.296Z,90.07
2023-05-22T04:01:51.943Z,90.42
2023-05-22T04:04:19.634Z,90.08
2023-05-22T04:06:49.588Z,90.61
2023-05-22T04:09:18.684Z,89.89
2023-05-22T04:11:46.516Z,89.67
2023-05-22T04:14:14.196Z,90.28
2023-05-22T04:16:42.038Z,90.01
2023-05-22T04:19:09.825Z,89.84
2023-05-22T04:21:38.347Z,89.79
2023-05-22T04:24:08.022Z,89.82
2023-05-22T04:26:36.149Z,89.90
2023-05-22T04:29:04.275Z,89.63
2023-05-22T04:31:32.450Z,90.18
2023-05-22T04:34:00.344Z,90.42
2023-05-22T04:36:29.120Z,89.90
2023-05-22T04:38:56.790Z,89.66
2023-05-22T04:41:26.757Z,89.04
2023-05-22T04:43:54.902Z,88.95
2023-05-22T04:46:22.830Z,89.09
2023-05-22T04:48:51.026Z,89.21
2023-05-22T04:51:18.804Z,88.68
2023-05-22T04:53:49.362Z,87.99
2023-05-22T04:56:27.966Z,87.78
2023-05-22T04:59:04.895Z,87.18
2023-05-22T05:01:33.631Z,87.58
2023-05-22T05:04:01.674Z,87.96
2023-05-22T05:06:29.389Z,87.58
2023-05-22T05:08:57.167Z,87.87
2023-05-22T05:11:25.058Z,87.07
2023-05-22T05:13:52.803Z,87.25
2023-05-22T05:16:23.215Z,86.73
2023-05-22T05:18:51.796Z,86.84
2023-05-22T05:21:20.520Z,86.60
2023-05-22T05:23:48.238Z,86.51
2023-05-22T05:26:16.112Z,85.21
2023-05-22T05:28:43.991Z,85.11
2023-05-22T05:31:11.868Z,84.79
2023-05-22T05:33:41.362Z,84.81
2023-05-22T05:36:10.047Z,84.93
2023-05-22T05:38:37.939Z,84.44
2023-05-22T05:41:05.942Z,84.45
2023-05-22T05:43:33.667Z,84.65
2023-05-22T05:46:01.652Z,83.78
2023-05-22T05:48:29.440Z,83.38
2023-05-22T05:50:58.521Z,82.66
2023-05-22T05:53:26.395Z,81.21
2023-05-22T05:55:54.459Z,81.19
2023-05-22T05:58:22.201Z,79.85
2023-05-22T06:00:49.899Z,79.65
2023-05-22T06:03:18.155Z,79.33
2023-05-22T06:05:46.938Z,79.83
2023-05-22T06:08:16.045Z,79.19
2023-05-22T06:10:43.770Z,79.10
2023-05-22T06:13:11.655Z,78.49
2023-05-22T06:15:39.334Z,79.06
2023-05-22T06:18:07.228Z,79.89
2023-05-22T06:20:35.179Z,78.89
2023-05-22T06:23:03.342Z,78.86
2023-05-22T06:25:32.995Z,79.06
2023-05-22T06:28:00.895Z,79.32
2023-05-22T06:30:39.710Z,78.69
2023-05-22T06:33:09.049Z,78.41
2023-05-22T06:35:36.971Z,77.37
2023-05-22T06:38:05.227Z,76.33
2023-05-22T06:40:34.411Z,75.54
2023-05-22T06:43:03.182Z,74.93
2023-05-22T06:45:31.169Z,74.90
2023-05-22T06:47:58.992Z,73.76
2023-05-22T06:50:26.735Z,74.15
2023-05-22T06:52:54.393Z,73.17
2023-05-22T06:55:22.058Z,72.56
2023-05-22T06:57:51.248Z,71.41
2023-05-22T07:00:21.796Z,70.05
2023-05-22T07:02:49.791Z,69.69
2023-05-22T07:05:17.986Z,68.73
2023-05-22T07:07:46.334Z,67.53
2023-05-22T07:10:14.729Z,65.59
2023-05-22T07:12:42.657Z,64.85
2023-05-22T07:15:14.520Z,63.17
2023-05-22T07:17:43.373Z,62.58
2023-05-22T07:20:12.217Z,61.39
2023-05-22T07:22:39.910Z,60.03
2023-05-22T07:25:08.993Z,59.80
2023-05-22T07:27:36.858Z,57.88
2023-05-22T07:30:05.758Z,56.71
2023-05-22T07:32:34.923Z,55.82
2023-05-22T07:35:05.244Z,56.12
2023-05-22T07:37:33.062Z,55.94
2023-05-22T07:40:00.834Z,55.39
2023-05-22T07:42:29.267Z,55.08
2023-05-22T07:44:57.200Z,54.41
2023-05-22T07:47:24.971Z,55.32
2023-05-22T07:49:54.106Z,55.59
2023-05-22T07:52:23.741Z,54.86
2023-05-22T07:54:51.552Z,55.82
2023-05-22T07:57:19.209Z,56.33
2023-05-22T07:59:47.475Z,55.30
2023-05-22T08:02:16.213Z,54.00
2023-05-22T08:04:44.508Z,55.35
2023-05-22T08:07:13.816Z,55.51
2023-05-22T08:09:41.656Z,54.82
2023-05-22T08:12:09.998Z,54.69
2023-05-22T08:14:38.147Z,54.39
2023-05-22T08:17:08.267Z,53.99
2023-05-22T08:19:36.208Z,53.52
2023-05-22T08:22:04.109Z,53.86
2023-05-22T08:24:33.160Z,54.35
2023-05-22T08:27:01.223Z,54.56
2023-05-22T08:29:29.660Z,54.57
2023-05-22T08:31:58.344Z,56.25
2023-05-22T08:34:26.463Z,55.54
2023-05-22T08:36:54.242Z,54.27
2023-05-22T08:39:22.145Z,51.57
2023-05-22T08:41:51.849Z,54.65
2023-05-22T08:44:21.000Z,53.10
2023-05-22T08:46:49.487Z,54.16
2023-05-22T08:49:18.249Z,53.67
2023-05-22T08:51:49.872Z,53.63
2023-05-22T08:54:22.539Z,52.27
2023-05-22T08:56:57.149Z,53.27
2023-05-22T08:59:25.954Z,52.51
2023-05-22T09:01:54.264Z,52.04
2023-05-22T09:04:24.286Z,51.45
2023-05-22T09:06:52.690Z,52.03
2023-05-22T09:09:20.421Z,51.91
2023-05-22T09:11:48.256Z,52.38
2023-05-22T09:14:17.333Z,50.33
2023-05-22T09:16:46.698Z,51.98
2023-05-22T09:19:16.092Z,51.54
2023-05-22T09:21:45.802Z,48.88
2023-05-22T09:24:13.599Z,46.70
2023-05-22T09:26:41.669Z,46.63
2023-05-22T09:29:09.660Z,47.32
2023-05-22T09:31:43.847Z,47.63
2023-05-22T09:34:14.357Z,47.01
2023-05-22T09:36:42.741Z,47.95
2023-05-22T09:39:10.916Z,50.05
2023-05-22T09:41:40.382Z,48.53
2023-05-22T09:44:15.096Z,47.26
2023-05-22T09:46:46.747Z,47.97
2023-05-22T09:49:16.836Z,49.28
2023-05-22T09:51:47.691Z,48.63
2023-05-22T09:54:17.516Z,48.71
2023-05-22T09:56:45.731Z,48.21
2023-05-22T09:59:15.560Z,47.53
2023-05-22T10:01:45.812Z,47.39
2023-05-22T10:04:14.909Z,45.80
2023-05-22T10:06:47.445Z,46.58
2023-05-22T10:09:19.554Z,47.78
2023-05-22T10:11:48.402Z,45.62
2023-05-22T10:14:16.506Z,45.64
2023-05-22T10:16:45.801Z,46.04
2023-05-22T10:19:14.144Z,46.58
2023-05-22T10:21:43.402Z,44.69
2023-05-22T10:24:11.448Z,45.75
2023-05-22T10:26:40.237Z,44.75
2023-05-22T10:29:13.002Z,46.91
2023-05-22T10:31:45.701Z,45.43
2023-05-22T10:34:25.392Z,45.41
2023-05-22T10:37:17.018Z,43.99
2023-05-22T10:40:04.260Z,44.07
2023-05-22T10:42:32.746Z,42.57
2023-05-22T10:45:02.182Z,42.80
2023-05-22T10:47:30.052Z,41.92
2023-05-22T10:50:09.282Z,41.81
2023-05-22T10:52:37.196Z,43.34
2023-05-22T10:55:09.340Z,44.90
2023-05-22T10:57:39.437Z,43.54
2023-05-22T11:00:10.298Z,44.69
2023-05-22T11:02:42.563Z,42.15
2023-05-22T11:05:36.870Z,42.20
2023-05-22T11:08:26.232Z,42.36
2023-05-22T11:10:55.285Z,43.85
2023-05-22T11:13:28.261Z,44.08
2023-05-22T11:15:57.819Z,43.36
2023-05-22T11:18:29.443Z,40.79
2023-05-22T11:21:00.925Z,41.44
2023-05-22T11:23:30.118Z,41.10
2023-05-22T11:26:20.473Z,41.96
2023-05-22T11:28:51.847Z,43.89
2023-05-22T11:31:23.695Z,45.70
2023-05-22T11:33:53.786Z,46.37
2023-05-22T11:36:24.476Z,45.06
2023-05-22T11:38:52.266Z,44.00
2023-05-22T11:41:21.429Z,44.28
2023-05-22T11:43:49.623Z,44.14
2023-05-22T11:46:17.504Z,45.09
2023-05-22T11:48:45.670Z,45.94
2023-05-22T11:51:13.656Z,47.27
2023-05-22T11:53:43.031Z,47.34
2023-05-22T11:56:11.318Z,47.72
2023-05-22T11:58:39.068Z,51.07
2023-05-22T12:01:07.685Z,54.96
2023-05-22T12:03:35.487Z,55.96
2023-05-22T12:06:04.046Z,59.60
2023-05-22T12:08:32.103Z,59.00
2023-05-22T12:11:01.911Z,59.78
2023-05-22T12:13:30.816Z,61.10
2023-05-22T12:16:00.413Z,60.99
2023-05-22T12:18:28.905Z,61.98
2023-05-22T12:20:57.219Z,65.74
2023-05-22T12:23:26.194Z,64.63
2023-05-22T12:26:10.447Z,63.84
2023-05-22T12:28:40.147Z,65.40
2023-05-22T12:31:07.889Z,64.31
2023-05-22T12:33:35.697Z,64.09
2023-05-22T12:36:09.296Z,66.80
2023-05-22T12:38:39.860Z,68.48
2023-05-22T12:41:09.025Z,71.88
2023-05-22T12:43:36.888Z,73.65
2023-05-22T12:46:04.683Z,71.60
2023-05-22T12:48:32.479Z,70.92
2023-05-22T12:51:00.408Z,72.47
2023-05-22T12:53:28.255Z,74.93
2023-05-22T12:55:56.061Z,72.67
2023-05-22T12:58:25.155Z,72.01
2023-05-22T13:00:53.322Z,73.17
2023-05-22T13:03:21.196Z,74.33
2023-05-22T13:05:48.903Z,75.18
2023-05-22T13:08:16.598Z,74.52
2023-05-22T13:10:44.626Z,75.37
2023-05-22T13:13:12.365Z,75.31
2023-05-22T13:18:09.163Z,78.70
2023-05-22T13:20:40.181Z,79.85
2023-05-22T13:23:08.029Z,81.39
2023-05-22T13:25:35.930Z,80.62
2023-05-22T13:28:03.916Z,81.34
2023-05-22T13:30:32.252Z,82.31
2023-05-22T13:33:01.718Z,83.33
2023-05-22T13:35:29.778Z,85.12
2023-05-22T13:37:57.594Z,86.48
2023-05-22T13:40:25.693Z,80.22
2023-05-22T13:42:53.766Z,77.78
2023-05-22T13:45:21.811Z,77.21
2023-05-22T13:47:50.176Z,78.63
2023-05-22T13:50:19.466Z,78.23
2023-05-22T13:52:47.161Z,80.76
2023-05-22T13:55:15.021Z,83.61
2023-05-22T13:57:42.774Z,82.36
2023-05-22T14:00:11.589Z,82.78
2023-05-22T14:02:39.497Z,84.57
2023-05-22T14:05:07.828Z,85.44
2023-05-22T14:07:36.944Z,86.39
2023-05-22T14:10:05.125Z,86.63
2023-05-22T14:12:32.925Z,86.67
2023-05-22T14:15:00.741Z,86.53
2023-05-22T14:17:28.789Z,87.19
2023-05-22T14:19:58.153Z,87.25
2023-05-22T14:22:25.896Z,87.46
2023-05-22T14:24:55.062Z,88.22
2023-05-22T14:27:22.957Z,88.84
2023-05-22T14:29:50.864Z,88.98
2023-05-22T14:32:18.738Z,88.86
2023-05-22T14:34:46.892Z,88.44
2023-05-22T14:37:14.674Z,88.24
2023-05-22T14:39:42.458Z,88.62
2023-05-22T14:42:11.745Z,88.41
2023-05-22T14:44:39.882Z,85.68
2023-05-22T14:47:07.879Z,82.05
2023-05-22T14:49:35.879Z,79.29
2023-05-22T14:52:03.851Z,79.57
2023-05-22T14:54:31.711Z,80.83
2023-05-22T14:56:59.996Z,80.35
2023-05-22T14:59:29.728Z,81.32
2023-05-22T15:01:57.477Z,82.53
2023-05-22T15:04:25.412Z,84.70
2023-05-22T15:06:53.352Z,86.30
2023-05-22T15:09:21.210Z,87.75
2023-05-22T15:11:50.713Z,88.56
2023-05-22T15:14:19.284Z,88.47
2023-05-22T15:16:49.939Z,88.84
2023-05-22T15:19:17.937Z,89.45
2023-05-22T15:21:46.006Z,89.70
2023-05-22T15:24:14.998Z,88.79
2023-05-22T15:26:42.984Z,89.00
2023-05-22T15:29:11.962Z,88.74
2023-05-22T15:31:40.015Z,89.15
2023-05-22T15:34:09.662Z,88.83
2023-05-22T15:36:37.530Z,88.42
2023-05-22T15:39:05.698Z,87.99
2023-05-22T15:41:33.482Z,87.18
2023-05-22T15:44:01.323Z,87.13
2023-05-22T15:46:29.598Z,86.43
2023-05-22T15:48:57.453Z,86.96
2023-05-22T15:51:26.545Z,87.04
2023-05-22T15:53:54.465Z,88.06
2023-05-22T15:56:23.499Z,87.94
2023-05-22T15:58:51.380Z,88.61
2023-05-22T16:01:19.378Z,88.24
2023-05-22T16:03:47.583Z,89.10
2023-05-22T16:06:15.384Z,87.85
2023-05-22T16:08:44.651Z,88.65
2023-05-22T16:11:13.803Z,89.07
2023-05-22T16:13:41.800Z,89.61
2023-05-22T16:16:11.586Z,90.49
2023-05-22T16:18:39.421Z,90.87
2023-05-22T16:21:07.393Z,92.82
2023-05-22T16:23:35.100Z,92.78
2023-05-22T16:26:04.624Z,93.80
2023-05-22T16:28:32.464Z,94.12
2023-05-22T16:31:00.271Z,94.75
2023-05-22T16:33:30.903Z,94.68
2023-05-22T16:35:58.732Z,94.82
2023-05-22T16:38:26.519Z,94.50
2023-05-22T16:40:55.205Z,93.83
2023-05-22T16:43:24.436Z,93.27
2023-05-22T16:45:52.689Z,92.55
2023-05-22T16:48:20.616Z,91.48
2023-05-22T16:50:48.440Z,91.28
2023-05-22T16:53:17.388Z,92.30
2023-05-22T16:55:45.467Z,93.09
2023-05-22T16:58:14.408Z,92.89
2023-05-22T17:00:43.971Z,91.44
2023-05-22T17:03:13.033Z,89.66
2023-05-22T17:05:41.443Z,89.22
2023-05-22T17:08:09.558Z,89.35
2023-05-22T17:10:37.281Z,89.37
2023-05-22T17:13:05.622Z,88.45
2023-05-22T17:15:33.516Z,87.76
2023-05-22T17:18:03.032Z,86.25
2023-05-22T17:20:32.940Z,84.76
2023-05-22T17:23:01.040Z,85.07
2023-05-22T17:25:29.135Z,85.51
2023-05-22T17:27:57.011Z,85.95
2023-05-22T17:30:25.333Z,85.45
2023-05-22T17:32:56.974Z,84.84
2023-05-22T17:35:26.310Z,84.52
2023-05-22T17:37:55.075Z,84.14
2023-05-22T17:40:32.559Z,84.66
2023-05-22T17:43:09.516Z,84.75
2023-05-22T17:45:40.164Z,84.57
2023-05-22T17:48:08.720Z,84.03
2023-05-22T17:50:37.988Z,83.91
2023-05-22T17:53:05.735Z,84.49
2023-05-22T17:55:33.501Z,85.59
2023-05-22T17:58:01.536Z,86.35
2023-05-22T18:00:29.321Z,87.70
2023-05-22T18:02:57.439Z,88.04
2023-05-22T18:05:25.295Z,87.78
2023-05-22T18:07:54.785Z,87.94
2023-05-22T18:10:25.671Z,87.25
2023-05-22T18:12:53.552Z,87.99
2023-05-22T18:15:21.574Z,86.22
2023-05-22T18:17:49.612Z,85.79
2023-05-22T18:20:17.882Z,87.32
2023-05-22T18:22:45.663Z,85.02
2023-05-22T18:25:14.807Z,84.36
2023-05-22T18:27:43.022Z,82.69
2023-05-22T18:30:11.789Z,83.48
2023-05-22T18:32:40.510Z,84.60
2023-05-22T18:35:09.379Z,84.33
2023-05-22T18:37:37.931Z,82.57
2023-05-22T18:40:09.129Z,82.88
2023-05-22T18:42:38.525Z,82.85
2023-05-22T18:45:08.191Z,84.14
2023-05-22T18:47:36.360Z,85.20
2023-05-22T18:50:04.215Z,86.74
2023-05-22T18:52:32.082Z,88.32
2023-05-22T18:55:00.270Z,89.23
2023-05-22T18:57:28.035Z,89.96
2023-05-22T18:59:57.318Z,89.55
2023-05-22T19:02:25.182Z,90.26
2023-05-22T19:04:53.310Z,90.13
2023-05-22T19:07:21.515Z,90.67
2023-05-22T19:09:49.647Z,91.72
2023-05-22T19:12:17.847Z,91.97
2023-05-22T19:14:48.276Z,92.29
2023-05-22T19:17:17.703Z,93.66
2023-05-22T19:19:46.805Z,94.76
2023-05-22T19:22:17.724Z,94.40
2023-05-22T19:24:45.890Z,94.75
2023-05-22T19:27:13.710Z,94.64
2023-05-22T19:29:41.791Z,95.12
2023-05-22T19:32:09.787Z,94.73
2023-05-22T19:34:38.964Z,94.72
2023-05-22T19:37:07.441Z,93.89
2023-05-22T19:39:35.382Z,93.83
2023-05-22T19:42:03.741Z,94.08
2023-05-22T19:44:31.806Z,95.04
2023-05-22T19:47:00.006Z,93.75
2023-05-22T19:49:28.075Z,94.38
2023-05-22T19:51:59.709Z,94.65
2023-05-22T19:54:27.600Z,95.35
2023-05-22T19:56:56.133Z,95.58
2023-05-22T19:59:24.036Z,95.80
2023-05-22T20:01:53.751Z,96.07
2023-05-22T20:04:22.413Z,95.67
2023-05-22T20:06:50.929Z,95.41
2023-05-22T20:09:20.326Z,95.61
2023-05-22T20:11:48.271Z,95.39
2023-05-22T20:14:16.617Z,94.61
2023-05-22T20:16:44.528Z,94.48
2023-05-22T20:19:14.377Z,94.82
2023-05-22T20:21:42.389Z,94.65
2023-05-22T20:24:17.524Z,94.95
2023-05-22T20:26:47.025Z,95.01
2023-05-22T20:29:15.542Z,93.20
2023-05-22T20:31:43.692Z,92.86
2023-05-22T20:34:11.926Z,91.47
2023-05-22T20:36:42.704Z,90.66
2023-05-22T20:39:12.128Z,90.00
2023-05-22T20:41:40.154Z,89.57
2023-05-22T20:44:09.465Z,89.03
2023-05-22T20:46:37.542Z,88.27
2023-05-22T20:49:06.192Z,88.31
2023-05-22T20:51:34.324Z,88.56
2023-05-22T20:54:02.892Z,88.14
2023-05-22T20:56:31.146Z,86.82
2023-05-22T20:58:59.358Z,87.18
2023-05-22T21:01:28.526Z,86.39
2023-05-22T21:03:56.938Z,85.99
2023-05-22T21:06:25.067Z,85.69
2023-05-22T21:08:54.276Z,85.20
2023-05-22T21:11:22.190Z,85.00
2023-05-22T21:13:50.335Z,85.64
2023-05-22T21:16:18.023Z,84.64
2023-05-22T21:18:47.228Z,85.33
2023-05-22T21:21:15.677Z,84.74
2023-05-22T21:23:43.510Z,84.85
2023-05-22T21:26:11.259Z,84.88
2023-05-22T21:28:39.155Z,83.72
2023-05-22T21:31:07.027Z,83.85
2023-05-22T21:33:35.223Z,83.93
2023-05-22T21:36:04.667Z,84.17
2023-05-22T21:38:32.407Z,84.13
2023-05-22T21:41:00.596Z,83.61
2023-05-22T21:43:28.835Z,83.70
2023-05-22T21:45:57.014Z,83.96
2023-05-22T21:48:24.824Z,83.72
2023-05-22T21:50:52.763Z,83.97
2023-05-22T21:53:22.256Z,84.26
2023-05-22T21:55:50.456Z,84.48
2023-05-22T21:58:18.265Z,84.26
2023-05-22T22:00:46.110Z,84.74
2023-05-22T22:03:14.156Z,85.03
2023-05-22T22:05:46.471Z,85.08
2023-05-22T22:08:14.676Z,84.94
2023-05-22T22:10:44.016Z,85.28
2023-05-22T22:13:11.844Z,85.03
2023-05-22T22:15:39.906Z,85.39
2023-05-22T22:18:07.704Z,85.03
2023-05-22T22:20:44.279Z,84.78
2023-05-22T22:23:13.079Z,85.10
2023-05-22T22:25:40.792Z,84.91
2023-05-22T22:28:10.137Z,84.82
2023-05-22T22:30:38.063Z,84.56
2023-05-22T22:33:06.323Z,84.23
2023-05-22T22:35:34.413Z,84.34
2023-05-22T22:38:02.443Z,84.22
2023-05-22T22:40:30.364Z,83.34
2023-05-22T22:42:58.176Z,83.11
2023-05-22T22:45:27.737Z,82.88
2023-05-22T22:47:56.501Z,83.75
2023-05-22T22:50:25.432Z,83.39
2023-05-22T22:52:53.538Z,84.03
2023-05-22T22:55:21.642Z,83.05
2023-05-22T22:57:51.054Z,83.78
2023-05-22T23:00:20.208Z,84.09
2023-05-22T23:02:49.422Z,83.56
2023-05-22T23:05:20.313Z,83.47
2023-05-22T23:07:48.861Z,82.64
2023-05-22T23:10:16.757Z,82.89
2023-05-22T23:12:44.434Z,83.00
2023-05-22T23:15:14.432Z,82.64
2023-05-22T23:17:42.584Z,81.85
2023-05-22T23:20:12.544Z,82.13
2023-05-22T23:22:40.467Z,82.14
2023-05-22T23:25:08.922Z,82.53
2023-05-22T23:27:37.402Z,83.13
2023-05-22T23:30:06.288Z,83.43
2023-05-22T23:32:34.124Z,83.79
2023-05-22T23:35:01.927Z,83.48
2023-05-22T23:37:31.285Z,83.42
2023-05-22T23:39:59.319Z,84.00
2023-05-22T23:42:27.135Z,84.08
2023-05-22T23:44:54.890Z,84.16
2023-05-22T23:47:22.779Z,84.66
2023-05-22T23:49:50.565Z,84.95
2023-05-22T23:52:18.340Z,84.48
2023-05-22T23:54:47.532Z,84.73
2023-05-22T23:57:15.656Z,85.30
2023-05-22T23:59:43.680Z,85.28
